PWSweather.com
Personal Weather Stations
Station Observations
MENWDWX1
Menstrie, ScotlandGB

MenstrieScotlandGB

Lat: 56.148322, Lon: -3.85483

Elevation: 62

Station Type: Davis Vantage Pro 2

Latest ConditionsUpdated 10:25:01 PM GMT Wednesday, Dec 12, 2018
Currently Today's Max Today's Min Today's Average
Temperature 39.5°F4.2°C 45.4°F7.4°C 39.5°F4.2°C 44.2°F6.8°C
Dew Point 32.9°F0.5°C 39.6°F4.2°C 32.9°F0.5°C 38.1°F3.4°C
Winds 9.2 mph E14.8 kmh E 15.0 mph -24.1 kmh - - 8.3 mph 13.4 kmh
Wind Gusts 12.7 mph20.4 kmh 19.6 mph31.5 kmh - -
Humidity 77% 80% 76% 79%
Pressure 30.01 in1016.3 mb 30.08 in1018.6 mb 30.00 in1015.9 mb -
Hour Temp Dew Point Humidity Winds Wind Gusts Pressure Precip Precip Rate Daily Precip Total
10:25 PM 39.5°F4.2°C 32.9°F0.5°C 77% 9.2 mph E14.8 kmh E 12.7 mph20.4 kmh 30.01 in1016.3 mb - 0.00 in0.0 mm 0.00 in0.0 mm
10:20 PM 39.6°F4.2°C 33.0°F0.6°C 77% 10.4 mph E16.7 kmh E 12.7 mph20.4 kmh 30.01 in1016.3 mb - 0.00 in0.0 mm 0.00 in0.0 mm
10:15 PM 39.5°F4.2°C 32.9°F0.5°C 77% 11.5 mph E18.5 kmh E 15.0 mph24.1 kmh 30.01 in1016.3 mb - 0.00 in0.0 mm 0.00 in0.0 mm
10:10 PM 39.5°F4.2°C 32.9°F0.5°C 77% 10.4 mph E16.7 kmh E 11.5 mph18.5 kmh 30.01 in1016.3 mb - 0.00 in0.0 mm 0.00 in0.0 mm
10:05 PM 39.5°F4.2°C 32.9°F0.5°C 77% 6.9 mph ESE11.1 kmh ESE 11.5 mph18.5 kmh 30.01 in1016.3 mb - 0.00 in0.0 mm 0.00 in0.0 mm
10:00 PM 39.5°F4.2°C 32.9°F0.5°C 77% 8.1 mph ESE13.0 kmh ESE 11.5 mph18.5 kmh 30.01 in1016.3 mb - 0.00 in0.0 mm 0.00 in0.0 mm
09:55 PM 39.7°F4.3°C 33.0°F0.6°C 77% 8.1 mph E13.0 kmh E 11.5 mph18.5 kmh 30.01 in1016.3 mb - 0.00 in0.0 mm 0.00 in0.0 mm
09:50 PM 39.8°F4.3°C 33.2°F0.7°C 77% 9.2 mph E14.8 kmh E 11.5 mph18.5 kmh 30.01 in1016.3 mb - 0.00 in0.0 mm 0.00 in0.0 mm
09:45 PM 40.1°F4.5°C 33.1°F0.6°C 76% 10.4 mph E16.7 kmh E 15.0 mph24.1 kmh 30.01 in1016.3 mb - 0.00 in0.0 mm 0.00 in0.0 mm
09:40 PM 40.3°F4.6°C 33.3°F0.7°C 76% 10.4 mph E16.7 kmh E 15.0 mph24.1 kmh 30.01 in1016.3 mb - 0.00 in0.0 mm 0.00 in0.0 mm
09:35 PM 40.3°F4.6°C 33.7°F0.9°C 77% 10.4 mph E16.7 kmh E 15.0 mph24.1 kmh 30.01 in1016.3 mb - 0.00 in0.0 mm 0.00 in0.0 mm
09:30 PM 40.3°F4.6°C 33.7°F0.9°C 77% 11.5 mph E18.5 kmh E 17.3 mph27.8 kmh 30.01 in1016.3 mb - 0.00 in0.0 mm 0.00 in0.0 mm
09:25 PM 40.3°F4.6°C 33.7°F0.9°C 77% 10.4 mph E16.7 kmh E 12.7 mph20.4 kmh 30.01 in1016.3 mb - 0.00 in0.0 mm 0.00 in0.0 mm
09:20 PM 40.4°F4.7°C 33.8°F1.0°C 77% 9.2 mph E14.8 kmh E 11.5 mph18.5 kmh 30.01 in1016.3 mb - 0.00 in0.0 mm 0.00 in0.0 mm
09:15 PM 40.6°F4.8°C 34.0°F1.1°C 77% 9.2 mph E14.8 kmh E 15.0 mph24.1 kmh 30.01 in1016.3 mb - 0.00 in0.0 mm 0.00 in0.0 mm
09:10 PM 40.8°F4.9°C 34.1°F1.2°C 77% 10.4 mph E16.7 kmh E 13.8 mph22.2 kmh 30.00 in1015.9 mb - 0.00 in0.0 mm 0.00 in0.0 mm
09:05 PM 41.0°F5.0°C 34.0°F1.1°C 76% 10.4 mph E16.7 kmh E 13.8 mph22.2 kmh 30.00 in1015.9 mb - 0.00 in0.0 mm 0.00 in0.0 mm
09:00 PM 41.2°F5.1°C 34.2°F1.2°C 76% 8.1 mph E13.0 kmh E 11.5 mph18.5 kmh 30.00 in1015.9 mb - 0.00 in0.0 mm 0.00 in0.0 mm
08:55 PM 41.4°F5.2°C 34.7°F1.5°C 77% 9.2 mph E14.8 kmh E 13.8 mph22.2 kmh 30.00 in1015.9 mb - 0.00 in0.0 mm 0.00 in0.0 mm
08:50 PM 41.6°F5.3°C 34.9°F1.6°C 77% 11.5 mph E18.5 kmh E 11.5 mph18.5 kmh 30.00 in1015.9 mb - 0.00 in0.0 mm 0.00 in0.0 mm
08:45 PM 41.8°F5.4°C 35.1°F1.7°C 77% 9.2 mph E14.8 kmh E 12.7 mph20.4 kmh 30.00 in1015.9 mb - 0.00 in0.0 mm 0.00 in0.0 mm
08:40 PM 42.0°F5.6°C 35.3°F1.8°C 77% 6.9 mph E11.1 kmh E 11.5 mph18.5 kmh 30.00 in1015.9 mb - 0.00 in0.0 mm 0.00 in0.0 mm
08:35 PM 42.2°F5.7°C 35.5°F1.9°C 77% 11.5 mph E18.5 kmh E 17.3 mph27.8 kmh 30.00 in1015.9 mb - 0.00 in0.0 mm 0.00 in0.0 mm
08:30 PM 42.4°F5.8°C 35.7°F2.1°C 77% 10.4 mph ESE16.7 kmh ESE 12.7 mph20.4 kmh 30.00 in1015.9 mb - 0.00 in0.0 mm 0.00 in0.0 mm
08:25 PM 42.7°F5.9°C 36.0°F2.2°C 77% 9.2 mph E14.8 kmh E 12.7 mph20.4 kmh 30.00 in1015.9 mb - 0.00 in0.0 mm 0.00 in0.0 mm
08:20 PM 42.8°F6.0°C 36.0°F2.2°C 77% 11.5 mph E18.5 kmh E 16.1 mph25.9 kmh 30.01 in1016.3 mb - 0.00 in0.0 mm 0.00 in0.0 mm
08:15 PM 42.8°F6.0°C 36.1°F2.3°C 77% 8.1 mph ESE13.0 kmh ESE 11.5 mph18.5 kmh 30.01 in1016.3 mb - 0.00 in0.0 mm 0.00 in0.0 mm
08:10 PM 42.9°F6.1°C 36.2°F2.3°C 77% 9.2 mph E14.8 kmh E 12.7 mph20.4 kmh 30.01 in1016.3 mb - 0.00 in0.0 mm 0.00 in0.0 mm
08:05 PM 42.9°F6.1°C 36.5°F2.5°C 78% 11.5 mph E18.5 kmh E 16.1 mph25.9 kmh 30.01 in1016.3 mb - 0.00 in0.0 mm 0.00 in0.0 mm
08:00 PM 42.9°F6.1°C 36.5°F2.5°C 78% 12.7 mph E20.4 kmh E 13.8 mph22.2 kmh 30.01 in1016.3 mb - 0.00 in0.0 mm 0.00 in0.0 mm
07:55 PM 42.9°F6.1°C 36.5°F2.5°C 78% 9.2 mph E14.8 kmh E 17.3 mph27.8 kmh 30.01 in1016.3 mb - 0.00 in0.0 mm 0.00 in0.0 mm
07:50 PM 42.9°F6.1°C 36.9°F2.7°C 79% 8.1 mph E13.0 kmh E 11.5 mph18.5 kmh 30.01 in1016.3 mb - 0.00 in0.0 mm 0.00 in0.0 mm
07:45 PM 43.1°F6.2°C 37.0°F2.8°C 79% 9.2 mph ESE14.8 kmh ESE 12.7 mph20.4 kmh 30.01 in1016.3 mb - 0.00 in0.0 mm 0.00 in0.0 mm
07:40 PM 43.2°F6.2°C 37.2°F2.9°C 79% 10.4 mph ESE16.7 kmh ESE 13.8 mph22.2 kmh 30.01 in1016.3 mb - 0.00 in0.0 mm 0.00 in0.0 mm
07:35 PM 43.4°F6.3°C 37.0°F2.8°C 78% 10.4 mph ESE16.7 kmh ESE 12.7 mph20.4 kmh 30.01 in1016.3 mb - 0.00 in0.0 mm 0.00 in0.0 mm
07:30 PM 43.4°F6.3°C 37.3°F2.9°C 79% 10.4 mph E16.7 kmh E 17.3 mph27.8 kmh 30.01 in1016.3 mb - 0.00 in0.0 mm 0.00 in0.0 mm
07:25 PM 43.3°F6.3°C 37.2°F2.9°C 79% 11.5 mph E18.5 kmh E 17.3 mph27.8 kmh 30.01 in1016.3 mb - 0.00 in0.0 mm 0.00 in0.0 mm
07:20 PM 43.3°F6.3°C 37.2°F2.9°C 79% 8.1 mph E13.0 kmh E 11.5 mph18.5 kmh 30.01 in1016.3 mb - 0.00 in0.0 mm 0.00 in0.0 mm
07:15 PM 43.4°F6.3°C 37.3°F2.9°C 79% 8.1 mph ESE13.0 kmh ESE 9.2 mph14.8 kmh 30.01 in1016.3 mb - 0.00 in0.0 mm 0.00 in0.0 mm
07:10 PM 43.5°F6.4°C 37.4°F3.0°C 79% 8.1 mph E13.0 kmh E 13.8 mph22.2 kmh 30.01 in1016.3 mb - 0.00 in0.0 mm 0.00 in0.0 mm
07:05 PM 43.5°F6.4°C 37.4°F3.0°C 79% 9.2 mph E14.8 kmh E 15.0 mph24.1 kmh 30.01 in1016.3 mb - 0.00 in0.0 mm 0.00 in0.0 mm
07:00 PM 43.5°F6.4°C 37.4°F3.0°C 79% 8.1 mph E13.0 kmh E 11.5 mph18.5 kmh 30.01 in1016.3 mb - 0.00 in0.0 mm 0.00 in0.0 mm
06:55 PM 43.5°F6.4°C 37.4°F3.0°C 79% 8.1 mph E13.0 kmh E 15.0 mph24.1 kmh 30.01 in1016.3 mb - 0.00 in0.0 mm 0.00 in0.0 mm
06:50 PM 43.6°F6.4°C 37.5°F3.1°C 79% 8.1 mph E13.0 kmh E 11.5 mph18.5 kmh 30.01 in1016.3 mb - 0.00 in0.0 mm 0.00 in0.0 mm
06:45 PM 43.6°F6.4°C 37.5°F3.1°C 79% 9.2 mph E14.8 kmh E 12.7 mph20.4 kmh 30.01 in1016.3 mb - 0.00 in0.0 mm 0.00 in0.0 mm
06:40 PM 43.7°F6.5°C 37.3°F2.9°C 78% 10.4 mph E16.7 kmh E 12.7 mph20.4 kmh 30.00 in1015.9 mb - 0.00 in0.0 mm 0.00 in0.0 mm
06:35 PM 43.8°F6.6°C 37.4°F3.0°C 78% 13.8 mph ESE22.2 kmh ESE 18.4 mph29.6 kmh 30.00 in1015.9 mb - 0.00 in0.0 mm 0.00 in0.0 mm
06:30 PM 43.8°F6.6°C 37.4°F3.0°C 78% 11.5 mph E18.5 kmh E 17.3 mph27.8 kmh 30.00 in1015.9 mb - 0.00 in0.0 mm 0.00 in0.0 mm
06:25 PM 43.8°F6.6°C 37.4°F3.0°C 78% 11.5 mph E18.5 kmh E 13.8 mph22.2 kmh 30.00 in1015.9 mb - 0.00 in0.0 mm 0.00 in0.0 mm
06:20 PM 43.8°F6.6°C 37.4°F3.0°C 78% 10.4 mph E16.7 kmh E 11.5 mph18.5 kmh 30.00 in1015.9 mb - 0.00 in0.0 mm 0.00 in0.0 mm
06:15 PM 43.7°F6.5°C 37.3°F2.9°C 78% 10.4 mph E16.7 kmh E 16.1 mph25.9 kmh 30.00 in1015.9 mb - 0.00 in0.0 mm 0.00 in0.0 mm
06:10 PM 43.7°F6.5°C 37.3°F2.9°C 78% 8.1 mph ESE13.0 kmh ESE 11.5 mph18.5 kmh 30.00 in1015.9 mb - 0.00 in0.0 mm 0.00 in0.0 mm
06:05 PM 43.9°F6.6°C 37.5°F3.1°C 78% 9.2 mph ESE14.8 kmh ESE 13.8 mph22.2 kmh 30.00 in1015.9 mb - 0.00 in0.0 mm 0.00 in0.0 mm
06:00 PM 44.1°F6.7°C 37.6°F3.1°C 78% 9.2 mph ESE14.8 kmh ESE 11.5 mph18.5 kmh 30.00 in1015.9 mb - 0.00 in0.0 mm 0.00 in0.0 mm
05:55 PM 44.1°F6.7°C 37.7°F3.2°C 78% 11.5 mph ESE18.5 kmh ESE 17.3 mph27.8 kmh 30.00 in1015.9 mb - 0.00 in0.0 mm 0.00 in0.0 mm
05:50 PM 44.2°F6.8°C 37.4°F3.0°C 77% 10.4 mph ESE16.7 kmh ESE 15.0 mph24.1 kmh 30.00 in1015.9 mb - 0.00 in0.0 mm 0.00 in0.0 mm
05:45 PM 44.3°F6.8°C 37.5°F3.1°C 77% 11.5 mph ESE18.5 kmh ESE 16.1 mph25.9 kmh 30.00 in1015.9 mb - 0.00 in0.0 mm 0.00 in0.0 mm
05:40 PM 44.3°F6.8°C 37.6°F3.1°C 77% 10.4 mph E16.7 kmh E 13.8 mph22.2 kmh 30.00 in1015.9 mb - 0.00 in0.0 mm 0.00 in0.0 mm
05:35 PM 44.3°F6.8°C 37.5°F3.1°C 77% 10.4 mph E16.7 kmh E 18.4 mph29.6 kmh 30.00 in1015.9 mb - 0.00 in0.0 mm 0.00 in0.0 mm
05:30 PM 44.3°F6.8°C 37.5°F3.1°C 77% 12.7 mph E20.4 kmh E 19.6 mph31.5 kmh 30.00 in1015.9 mb - 0.00 in0.0 mm 0.00 in0.0 mm
05:25 PM 44.5°F6.9°C 38.1°F3.4°C 78% 13.8 mph E22.2 kmh E 17.3 mph27.8 kmh 30.00 in1015.9 mb - 0.00 in0.0 mm 0.00 in0.0 mm
05:20 PM 44.5°F6.9°C 38.1°F3.4°C 78% 10.4 mph E16.7 kmh E 12.7 mph20.4 kmh 30.00 in1015.9 mb - 0.00 in0.0 mm 0.00 in0.0 mm
05:15 PM 44.5°F6.9°C 38.1°F3.4°C 78% 10.4 mph E16.7 kmh E 13.8 mph22.2 kmh 30.00 in1015.9 mb - 0.00 in0.0 mm 0.00 in0.0 mm
05:10 PM 44.3°F6.8°C 37.9°F3.3°C 78% 11.5 mph ESE18.5 kmh ESE 16.1 mph25.9 kmh 30.00 in1015.9 mb - 0.00 in0.0 mm 0.00 in0.0 mm
05:05 PM 44.3°F6.8°C 37.9°F3.3°C 78% 9.2 mph E14.8 kmh E 18.4 mph29.6 kmh 30.00 in1015.9 mb - 0.00 in0.0 mm 0.00 in0.0 mm
05:00 PM 44.3°F6.8°C 37.9°F3.3°C 78% 10.4 mph E16.7 kmh E 15.0 mph24.1 kmh 30.01 in1016.3 mb - 0.00 in0.0 mm 0.00 in0.0 mm
04:55 PM 44.5°F6.9°C 38.1°F3.4°C 78% 9.2 mph E14.8 kmh E 13.8 mph22.2 kmh 30.01 in1016.3 mb - 0.00 in0.0 mm 0.00 in0.0 mm
04:50 PM 44.6°F7.0°C 38.2°F3.4°C 78% 9.2 mph E14.8 kmh E 13.8 mph22.2 kmh 30.01 in1016.3 mb - 0.00 in0.0 mm 0.00 in0.0 mm
04:45 PM 44.7°F7.1°C 37.9°F3.3°C 77% 9.2 mph E14.8 kmh E 11.5 mph18.5 kmh 30.01 in1016.3 mb - 0.00 in0.0 mm 0.00 in0.0 mm
04:40 PM 44.7°F7.1°C 38.3°F3.5°C 78% 10.4 mph E16.7 kmh E 13.8 mph22.2 kmh 30.01 in1016.3 mb - 0.00 in0.0 mm 0.00 in0.0 mm
04:35 PM 44.7°F7.1°C 38.3°F3.5°C 78% 11.5 mph E18.5 kmh E 16.1 mph25.9 kmh 30.01 in1016.3 mb - 0.00 in0.0 mm 0.00 in0.0 mm
04:30 PM 44.7°F7.1°C 38.3°F3.5°C 78% 10.4 mph E16.7 kmh E 11.5 mph18.5 kmh 30.01 in1016.3 mb - 0.00 in0.0 mm 0.00 in0.0 mm
04:25 PM 44.8°F7.1°C 38.4°F3.6°C 78% 9.2 mph E14.8 kmh E 11.5 mph18.5 kmh 30.01 in1016.3 mb - 0.00 in0.0 mm 0.00 in0.0 mm
04:20 PM 44.7°F7.1°C 38.3°F3.5°C 78% 10.4 mph E16.7 kmh E 13.8 mph22.2 kmh 30.01 in1016.3 mb - 0.00 in0.0 mm 0.00 in0.0 mm
04:15 PM 44.7°F7.1°C 38.2°F3.4°C 78% 10.4 mph E16.7 kmh E 11.5 mph18.5 kmh 30.01 in1016.3 mb - 0.00 in0.0 mm 0.00 in0.0 mm
04:10 PM 44.7°F7.1°C 38.3°F3.5°C 78% 10.4 mph E16.7 kmh E 13.8 mph22.2 kmh 30.01 in1016.3 mb - 0.00 in0.0 mm 0.00 in0.0 mm
04:05 PM 44.8°F7.1°C 38.4°F3.6°C 78% 9.2 mph ESE14.8 kmh ESE 11.5 mph18.5 kmh 30.01 in1016.3 mb - 0.00 in0.0 mm 0.00 in0.0 mm
04:00 PM 45.0°F7.2°C 38.6°F3.7°C 78% 9.2 mph ESE14.8 kmh ESE 15.0 mph24.1 kmh 30.01 in1016.3 mb - 0.00 in0.0 mm 0.00 in0.0 mm
03:55 PM 45.2°F7.3°C 38.7°F3.7°C 78% 10.4 mph E16.7 kmh E 11.5 mph18.5 kmh 30.01 in1016.3 mb - 0.00 in0.0 mm 0.00 in0.0 mm
03:50 PM 45.2°F7.3°C 38.7°F3.7°C 78% 10.4 mph E16.7 kmh E 16.1 mph25.9 kmh 30.01 in1016.3 mb - 0.00 in0.0 mm 0.00 in0.0 mm
03:45 PM 45.2°F7.3°C 38.7°F3.7°C 78% 9.2 mph ESE14.8 kmh ESE 11.5 mph18.5 kmh 30.01 in1016.3 mb - 0.00 in0.0 mm 0.00 in0.0 mm
03:40 PM 45.2°F7.3°C 38.7°F3.7°C 78% 9.2 mph E14.8 kmh E 11.5 mph18.5 kmh 30.01 in1016.3 mb - 0.00 in0.0 mm 0.00 in0.0 mm
03:35 PM 45.3°F7.4°C 38.8°F3.8°C 78% 9.2 mph ESE14.8 kmh ESE 11.5 mph18.5 kmh 30.01 in1016.3 mb - 0.00 in0.0 mm 0.00 in0.0 mm
03:30 PM 45.3°F7.4°C 38.8°F3.8°C 78% 10.4 mph ESE16.7 kmh ESE 13.8 mph22.2 kmh 30.01 in1016.3 mb - 0.00 in0.0 mm 0.00 in0.0 mm
03:25 PM 45.3°F7.4°C 38.8°F3.8°C 78% 8.1 mph E13.0 kmh E 11.5 mph18.5 kmh 30.01 in1016.3 mb - 0.00 in0.0 mm 0.00 in0.0 mm
03:20 PM 45.3°F7.4°C 38.8°F3.8°C 78% 8.1 mph E13.0 kmh E 10.4 mph16.7 kmh 30.01 in1016.3 mb - 0.00 in0.0 mm 0.00 in0.0 mm
03:15 PM 45.2°F7.3°C 38.7°F3.7°C 78% 10.4 mph E16.7 kmh E 12.7 mph20.4 kmh 30.01 in1016.3 mb - 0.00 in0.0 mm 0.00 in0.0 mm
03:10 PM 45.1°F7.3°C 38.6°F3.7°C 78% 10.4 mph E16.7 kmh E 11.5 mph18.5 kmh 30.01 in1016.3 mb - 0.00 in0.0 mm 0.00 in0.0 mm
03:05 PM 45.0°F7.2°C 38.9°F3.8°C 79% 9.2 mph E14.8 kmh E 11.5 mph18.5 kmh 30.02 in1016.6 mb - 0.00 in0.0 mm 0.00 in0.0 mm
03:00 PM 45.0°F7.2°C 38.9°F3.8°C 79% 6.9 mph E11.1 kmh E 11.5 mph18.5 kmh 30.02 in1016.6 mb - 0.00 in0.0 mm 0.00 in0.0 mm
02:55 PM 45.0°F7.2°C 38.9°F3.8°C 79% 6.9 mph E11.1 kmh E 11.5 mph18.5 kmh 30.02 in1016.6 mb - 0.00 in0.0 mm 0.00 in0.0 mm
02:50 PM 45.0°F7.2°C 38.9°F3.8°C 79% 8.1 mph E13.0 kmh E 11.5 mph18.5 kmh 30.02 in1016.6 mb - 0.00 in0.0 mm 0.00 in0.0 mm
02:45 PM 44.9°F7.2°C 38.8°F3.8°C 79% 8.1 mph E13.0 kmh E 11.5 mph18.5 kmh 30.02 in1016.6 mb - 0.00 in0.0 mm 0.00 in0.0 mm
02:40 PM 44.9°F7.2°C 38.8°F3.8°C 79% 9.2 mph E14.8 kmh E 11.5 mph18.5 kmh 30.02 in1016.6 mb - 0.00 in0.0 mm 0.00 in0.0 mm
02:35 PM 44.9°F7.2°C 38.8°F3.8°C 79% 6.9 mph E11.1 kmh E 8.1 mph13.0 kmh 30.02 in1016.6 mb - 0.00 in0.0 mm 0.00 in0.0 mm
02:30 PM 44.9°F7.2°C 38.7°F3.7°C 79% 10.4 mph E16.7 kmh E 15.0 mph24.1 kmh 30.02 in1016.6 mb - 0.00 in0.0 mm 0.00 in0.0 mm
02:25 PM 44.8°F7.1°C 38.7°F3.7°C 79% 9.2 mph E14.8 kmh E 11.5 mph18.5 kmh 30.02 in1016.6 mb - 0.00 in0.0 mm 0.00 in0.0 mm
02:20 PM 44.8°F7.1°C 38.7°F3.7°C 79% 9.2 mph E14.8 kmh E 11.5 mph18.5 kmh 30.02 in1016.6 mb - 0.00 in0.0 mm 0.00 in0.0 mm
02:15 PM 44.7°F7.1°C 38.6°F3.7°C 79% 9.2 mph E14.8 kmh E 11.5 mph18.5 kmh 30.03 in1016.9 mb - 0.00 in0.0 mm 0.00 in0.0 mm
02:10 PM 44.6°F7.0°C 38.5°F3.6°C 79% 10.4 mph ESE16.7 kmh ESE 13.8 mph22.2 kmh 30.03 in1016.9 mb - 0.00 in0.0 mm 0.00 in0.0 mm
02:05 PM 44.6°F7.0°C 38.5°F3.6°C 79% 6.9 mph E11.1 kmh E 11.5 mph18.5 kmh 30.03 in1016.9 mb - 0.00 in0.0 mm 0.00 in0.0 mm
02:00 PM 44.6°F7.0°C 38.5°F3.6°C 79% 9.2 mph E14.8 kmh E 11.5 mph18.5 kmh 30.04 in1017.3 mb - 0.00 in0.0 mm 0.00 in0.0 mm
01:55 PM 44.6°F7.0°C 38.5°F3.6°C 79% 6.9 mph E11.1 kmh E 11.5 mph18.5 kmh 30.04 in1017.3 mb - 0.00 in0.0 mm 0.00 in0.0 mm
01:50 PM 44.6°F7.0°C 38.5°F3.6°C 79% 8.1 mph E13.0 kmh E 9.2 mph14.8 kmh 30.04 in1017.3 mb - 0.00 in0.0 mm 0.00 in0.0 mm
01:45 PM 44.7°F7.1°C 38.6°F3.7°C 79% 6.9 mph E11.1 kmh E 9.2 mph14.8 kmh 30.04 in1017.3 mb - 0.00 in0.0 mm 0.00 in0.0 mm
01:40 PM 44.7°F7.1°C 38.6°F3.7°C 79% 9.2 mph E14.8 kmh E 11.5 mph18.5 kmh 30.04 in1017.3 mb - 0.00 in0.0 mm 0.00 in0.0 mm
01:35 PM 44.7°F7.1°C 38.6°F3.7°C 79% 8.1 mph E13.0 kmh E 10.4 mph16.7 kmh 30.04 in1017.3 mb - 0.00 in0.0 mm 0.00 in0.0 mm
01:30 PM 44.7°F7.1°C 38.6°F3.7°C 79% 8.1 mph E13.0 kmh E 11.5 mph18.5 kmh 30.04 in1017.3 mb - 0.00 in0.0 mm 0.00 in0.0 mm
01:25 PM 44.7°F7.1°C 38.6°F3.7°C 79% 6.9 mph E11.1 kmh E 10.4 mph16.7 kmh 30.04 in1017.3 mb - 0.00 in0.0 mm 0.00 in0.0 mm
01:20 PM 44.7°F7.1°C 38.6°F3.7°C 79% 8.1 mph E13.0 kmh E 10.4 mph16.7 kmh 30.04 in1017.3 mb - 0.00 in0.0 mm 0.00 in0.0 mm
01:15 PM 44.7°F7.1°C 38.6°F3.7°C 79% 9.2 mph E14.8 kmh E 11.5 mph18.5 kmh 30.04 in1017.3 mb - 0.00 in0.0 mm 0.00 in0.0 mm
01:10 PM 44.6°F7.0°C 38.5°F3.6°C 79% 8.1 mph ESE13.0 kmh ESE 11.5 mph18.5 kmh 30.04 in1017.3 mb - 0.00 in0.0 mm 0.00 in0.0 mm
01:05 PM 44.7°F7.1°C 38.6°F3.7°C 79% 6.9 mph E11.1 kmh E 12.7 mph20.4 kmh 30.04 in1017.3 mb - 0.00 in0.0 mm 0.00 in0.0 mm
01:00 PM 44.6°F7.0°C 38.5°F3.6°C 79% 8.1 mph E13.0 kmh E 12.7 mph20.4 kmh 30.04 in1017.3 mb - 0.00 in0.0 mm 0.00 in0.0 mm
12:55 PM 44.6°F7.0°C 38.5°F3.6°C 79% 11.5 mph E18.5 kmh E 15.0 mph24.1 kmh 30.04 in1017.3 mb - 0.00 in0.0 mm 0.00 in0.0 mm
12:50 PM 44.6°F7.0°C 38.5°F3.6°C 79% 8.1 mph ESE13.0 kmh ESE 9.2 mph14.8 kmh 30.05 in1017.6 mb - 0.00 in0.0 mm 0.00 in0.0 mm
12:45 PM 44.6°F7.0°C 38.5°F3.6°C 79% 6.9 mph E11.1 kmh E 12.7 mph20.4 kmh 30.05 in1017.6 mb - 0.00 in0.0 mm 0.00 in0.0 mm
12:40 PM 44.6°F7.0°C 38.5°F3.6°C 79% 9.2 mph E14.8 kmh E 10.4 mph16.7 kmh 30.05 in1017.6 mb - 0.00 in0.0 mm 0.00 in0.0 mm
12:35 PM 44.7°F7.1°C 38.6°F3.7°C 79% 8.1 mph E13.0 kmh E 13.8 mph22.2 kmh 30.05 in1017.6 mb - 0.00 in0.0 mm 0.00 in0.0 mm
12:30 PM 44.7°F7.1°C 38.6°F3.7°C 79% 8.1 mph E13.0 kmh E 9.2 mph14.8 kmh 30.05 in1017.6 mb - 0.00 in0.0 mm 0.00 in0.0 mm
12:25 PM 44.8°F7.1°C 38.7°F3.7°C 79% 10.4 mph E16.7 kmh E 13.8 mph22.2 kmh 30.05 in1017.6 mb - 0.00 in0.0 mm 0.00 in0.0 mm
12:20 PM 45.0°F7.2°C 38.8°F3.8°C 79% 10.4 mph E16.7 kmh E 12.7 mph20.4 kmh 30.05 in1017.6 mb - 0.00 in0.0 mm 0.00 in0.0 mm
12:15 PM 45.1°F7.3°C 39.0°F3.9°C 79% 9.2 mph E14.8 kmh E 12.7 mph20.4 kmh 30.05 in1017.6 mb - 0.00 in0.0 mm 0.00 in0.0 mm
12:10 PM 45.2°F7.3°C 38.7°F3.7°C 78% 11.5 mph E18.5 kmh E 13.8 mph22.2 kmh 30.05 in1017.6 mb - 0.00 in0.0 mm 0.00 in0.0 mm
12:05 PM 45.2°F7.3°C 39.1°F3.9°C 79% 8.1 mph ESE13.0 kmh ESE 11.5 mph18.5 kmh 30.05 in1017.6 mb - 0.00 in0.0 mm 0.00 in0.0 mm
12:00 PM 45.2°F7.3°C 38.7°F3.7°C 78% 9.2 mph E14.8 kmh E 12.7 mph20.4 kmh 30.06 in1017.9 mb - 0.00 in0.0 mm 0.00 in0.0 mm
11:55 AM 45.1°F7.3°C 39.0°F3.9°C 79% 9.2 mph E14.8 kmh E 16.1 mph25.9 kmh 30.06 in1017.9 mb - 0.00 in0.0 mm 0.00 in0.0 mm
11:50 AM 44.9°F7.2°C 38.8°F3.8°C 79% 9.2 mph E14.8 kmh E 11.5 mph18.5 kmh 30.06 in1017.9 mb - 0.00 in0.0 mm 0.00 in0.0 mm
11:45 AM 44.7°F7.1°C 38.6°F3.7°C 79% 8.1 mph E13.0 kmh E 11.5 mph18.5 kmh 30.06 in1017.9 mb - 0.00 in0.0 mm 0.00 in0.0 mm
11:40 AM 44.6°F7.0°C 38.2°F3.4°C 78% 13.8 mph E22.2 kmh E 19.6 mph31.5 kmh 30.06 in1017.9 mb - 0.00 in0.0 mm 0.00 in0.0 mm
11:35 AM 44.5°F6.9°C 38.4°F3.6°C 79% 11.5 mph E18.5 kmh E 16.1 mph25.9 kmh 30.06 in1017.9 mb - 0.00 in0.0 mm 0.00 in0.0 mm
11:30 AM 44.5°F6.9°C 38.4°F3.6°C 79% 15.0 mph E24.1 kmh E 18.4 mph29.6 kmh 30.06 in1017.9 mb - 0.00 in0.0 mm 0.00 in0.0 mm
11:25 AM 44.4°F6.9°C 38.3°F3.5°C 79% 9.2 mph E14.8 kmh E 18.4 mph29.6 kmh 30.06 in1017.9 mb - 0.00 in0.0 mm 0.00 in0.0 mm
11:20 AM 44.5°F6.9°C 38.4°F3.6°C 79% 12.7 mph E20.4 kmh E 17.3 mph27.8 kmh 30.06 in1017.9 mb - 0.00 in0.0 mm 0.00 in0.0 mm
11:15 AM 44.6°F7.0°C 38.5°F3.6°C 79% 9.2 mph ESE14.8 kmh ESE 15.0 mph24.1 kmh 30.06 in1017.9 mb - 0.00 in0.0 mm 0.00 in0.0 mm
11:10 AM 44.5°F6.9°C 38.4°F3.6°C 79% 10.4 mph E16.7 kmh E 12.7 mph20.4 kmh 30.06 in1017.9 mb - 0.00 in0.0 mm 0.00 in0.0 mm
11:05 AM 44.4°F6.9°C 38.3°F3.5°C 79% 11.5 mph E18.5 kmh E 13.8 mph22.2 kmh 30.06 in1017.9 mb - 0.00 in0.0 mm 0.00 in0.0 mm
11:00 AM 44.4°F6.9°C 38.3°F3.5°C 79% 8.1 mph ESE13.0 kmh ESE 11.5 mph18.5 kmh 30.07 in1018.3 mb - 0.00 in0.0 mm 0.00 in0.0 mm
10:55 AM 44.3°F6.8°C 38.2°F3.4°C 79% 9.2 mph E14.8 kmh E 11.5 mph18.5 kmh 30.07 in1018.3 mb - 0.00 in0.0 mm 0.00 in0.0 mm
10:50 AM 44.3°F6.8°C 38.2°F3.4°C 79% 11.5 mph E18.5 kmh E 17.3 mph27.8 kmh 30.07 in1018.3 mb - 0.00 in0.0 mm 0.00 in0.0 mm
10:45 AM 44.3°F6.8°C 38.2°F3.4°C 79% 10.4 mph E16.7 kmh E 12.7 mph20.4 kmh 30.06 in1017.9 mb - 0.00 in0.0 mm 0.00 in0.0 mm
10:40 AM 44.2°F6.8°C 38.1°F3.4°C 79% 8.1 mph E13.0 kmh E 10.4 mph16.7 kmh 30.06 in1017.9 mb - 0.00 in0.0 mm 0.00 in0.0 mm
10:35 AM 44.2°F6.8°C 38.1°F3.4°C 79% 11.5 mph E18.5 kmh E 13.8 mph22.2 kmh 30.06 in1017.9 mb - 0.00 in0.0 mm 0.00 in0.0 mm
10:30 AM 44.2°F6.8°C 38.1°F3.4°C 79% 9.2 mph E14.8 kmh E 11.5 mph18.5 kmh 30.07 in1018.3 mb - 0.00 in0.0 mm 0.00 in0.0 mm
10:25 AM 44.2°F6.8°C 38.1°F3.4°C 79% 8.1 mph E13.0 kmh E 12.7 mph20.4 kmh 30.07 in1018.3 mb - 0.00 in0.0 mm 0.00 in0.0 mm
10:20 AM 44.1°F6.7°C 38.4°F3.6°C 80% 9.2 mph E14.8 kmh E 12.7 mph20.4 kmh 30.07 in1018.3 mb - 0.00 in0.0 mm 0.00 in0.0 mm
10:15 AM 44.1°F6.7°C 38.3°F3.5°C 80% 8.1 mph E13.0 kmh E 11.5 mph18.5 kmh 30.07 in1018.3 mb - 0.00 in0.0 mm 0.00 in0.0 mm
10:10 AM 44.0°F6.7°C 38.2°F3.4°C 80% 10.4 mph E16.7 kmh E 12.7 mph20.4 kmh 30.07 in1018.3 mb - 0.00 in0.0 mm 0.00 in0.0 mm
10:05 AM 43.9°F6.6°C 38.1°F3.4°C 80% 9.2 mph E14.8 kmh E 12.7 mph20.4 kmh 30.07 in1018.3 mb - 0.00 in0.0 mm 0.00 in0.0 mm
10:00 AM 43.8°F6.6°C 38.0°F3.3°C 80% 9.2 mph E14.8 kmh E 16.1 mph25.9 kmh 30.07 in1018.3 mb - 0.00 in0.0 mm 0.00 in0.0 mm
09:55 AM 43.8°F6.6°C 38.0°F3.3°C 80% 10.4 mph E16.7 kmh E 16.1 mph25.9 kmh 30.08 in1018.6 mb - 0.00 in0.0 mm 0.00 in0.0 mm
09:50 AM 43.7°F6.5°C 37.9°F3.3°C 80% 9.2 mph E14.8 kmh E 12.7 mph20.4 kmh 30.07 in1018.3 mb - 0.00 in0.0 mm 0.00 in0.0 mm
09:45 AM 43.7°F6.5°C 37.9°F3.3°C 80% 8.1 mph E13.0 kmh E 12.7 mph20.4 kmh 30.07 in1018.3 mb - 0.00 in0.0 mm 0.00 in0.0 mm
09:40 AM 43.8°F6.6°C 38.0°F3.3°C 80% 10.4 mph ESE16.7 kmh ESE 15.0 mph24.1 kmh 30.07 in1018.3 mb - 0.00 in0.0 mm 0.00 in0.0 mm
09:35 AM 43.8°F6.6°C 38.0°F3.3°C 80% 10.4 mph E16.7 kmh E 15.0 mph24.1 kmh 30.07 in1018.3 mb - 0.00 in0.0 mm 0.00 in0.0 mm
09:30 AM 43.9°F6.6°C 38.1°F3.4°C 80% 9.2 mph E14.8 kmh E 11.5 mph18.5 kmh 30.07 in1018.3 mb - 0.00 in0.0 mm 0.00 in0.0 mm
09:25 AM 44.0°F6.7°C 38.2°F3.4°C 80% 11.5 mph E18.5 kmh E 12.7 mph20.4 kmh 30.07 in1018.3 mb - 0.00 in0.0 mm 0.00 in0.0 mm
09:20 AM 44.1°F6.7°C 38.3°F3.5°C 80% 10.4 mph E16.7 kmh E 17.3 mph27.8 kmh 30.07 in1018.3 mb - 0.00 in0.0 mm 0.00 in0.0 mm
09:15 AM 44.2°F6.8°C 38.4°F3.6°C 80% 11.5 mph E18.5 kmh E 17.3 mph27.8 kmh 30.07 in1018.3 mb - 0.00 in0.0 mm 0.00 in0.0 mm
09:10 AM 44.3°F6.8°C 38.5°F3.6°C 80% 11.5 mph E18.5 kmh E 16.1 mph25.9 kmh 30.07 in1018.3 mb - 0.00 in0.0 mm 0.00 in0.0 mm
09:05 AM 44.3°F6.8°C 38.5°F3.6°C 80% 10.4 mph E16.7 kmh E 16.1 mph25.9 kmh 30.07 in1018.3 mb - 0.00 in0.0 mm 0.00 in0.0 mm
09:00 AM 44.3°F6.8°C 38.5°F3.6°C 80% 10.4 mph E16.7 kmh E 11.5 mph18.5 kmh 30.07 in1018.3 mb - 0.00 in0.0 mm 0.00 in0.0 mm
08:55 AM 44.3°F6.8°C 38.6°F3.7°C 80% 11.5 mph E18.5 kmh E 12.7 mph20.4 kmh 30.07 in1018.3 mb - 0.00 in0.0 mm 0.00 in0.0 mm
08:50 AM 44.3°F6.8°C 38.5°F3.6°C 80% 11.5 mph E18.5 kmh E 13.8 mph22.2 kmh 30.06 in1017.9 mb - 0.00 in0.0 mm 0.00 in0.0 mm
08:45 AM 44.4°F6.9°C 38.6°F3.7°C 80% 6.9 mph E11.1 kmh E 11.5 mph18.5 kmh 30.06 in1017.9 mb - 0.00 in0.0 mm 0.00 in0.0 mm
08:40 AM 44.5°F6.9°C 38.7°F3.7°C 80% 10.4 mph E16.7 kmh E 13.8 mph22.2 kmh 30.06 in1017.9 mb - 0.00 in0.0 mm 0.00 in0.0 mm
08:35 AM 44.6°F7.0°C 38.8°F3.8°C 80% 9.2 mph E14.8 kmh E 12.7 mph20.4 kmh 30.06 in1017.9 mb - 0.00 in0.0 mm 0.00 in0.0 mm
08:30 AM 44.6°F7.0°C 38.9°F3.8°C 80% 6.9 mph ESE11.1 kmh ESE 11.5 mph18.5 kmh 30.06 in1017.9 mb - 0.00 in0.0 mm 0.00 in0.0 mm
08:25 AM 44.7°F7.1°C 38.9°F3.8°C 80% 8.1 mph E13.0 kmh E 10.4 mph16.7 kmh 30.06 in1017.9 mb - 0.00 in0.0 mm 0.00 in0.0 mm
08:20 AM 44.8°F7.1°C 39.0°F3.9°C 80% 9.2 mph E14.8 kmh E 15.0 mph24.1 kmh 30.05 in1017.6 mb - 0.00 in0.0 mm 0.00 in0.0 mm
08:15 AM 44.9°F7.2°C 39.1°F3.9°C 80% 10.4 mph E16.7 kmh E 12.7 mph20.4 kmh 30.05 in1017.6 mb - 0.00 in0.0 mm 0.00 in0.0 mm
08:10 AM 44.9°F7.2°C 39.1°F3.9°C 80% 9.2 mph E14.8 kmh E 13.8 mph22.2 kmh 30.05 in1017.6 mb - 0.00 in0.0 mm 0.00 in0.0 mm
08:05 AM 45.0°F7.2°C 39.2°F4.0°C 80% 9.2 mph E14.8 kmh E 12.7 mph20.4 kmh 30.05 in1017.6 mb - 0.00 in0.0 mm 0.00 in0.0 mm
08:00 AM 45.0°F7.2°C 39.2°F4.0°C 80% 9.2 mph E14.8 kmh E 12.7 mph20.4 kmh 30.05 in1017.6 mb - 0.00 in0.0 mm 0.00 in0.0 mm
07:55 AM 45.1°F7.3°C 39.3°F4.1°C 80% 6.9 mph E11.1 kmh E 11.5 mph18.5 kmh 30.05 in1017.6 mb - 0.00 in0.0 mm 0.00 in0.0 mm
07:50 AM 45.2°F7.3°C 39.1°F3.9°C 79% 9.2 mph ESE14.8 kmh ESE 11.5 mph18.5 kmh 30.05 in1017.6 mb - 0.00 in0.0 mm 0.00 in0.0 mm
07:45 AM 45.2°F7.3°C 39.4°F4.1°C 80% 10.4 mph E16.7 kmh E 12.7 mph20.4 kmh 30.05 in1017.6 mb - 0.00 in0.0 mm 0.00 in0.0 mm
07:40 AM 45.2°F7.3°C 39.4°F4.1°C 80% 10.4 mph E16.7 kmh E 12.7 mph20.4 kmh 30.06 in1017.9 mb - 0.00 in0.0 mm 0.00 in0.0 mm
07:35 AM 45.2°F7.3°C 39.4°F4.1°C 80% 10.4 mph E16.7 kmh E 13.8 mph22.2 kmh 30.06 in1017.9 mb - 0.00 in0.0 mm 0.00 in0.0 mm
07:30 AM 45.2°F7.3°C 39.4°F4.1°C 80% 6.9 mph E11.1 kmh E 10.4 mph16.7 kmh 30.06 in1017.9 mb - 0.00 in0.0 mm 0.00 in0.0 mm
07:25 AM 45.1°F7.3°C 39.3°F4.1°C 80% 9.2 mph E14.8 kmh E 12.7 mph20.4 kmh 30.05 in1017.6 mb - 0.00 in0.0 mm 0.00 in0.0 mm
07:20 AM 44.9°F7.2°C 39.2°F4.0°C 80% 10.4 mph E16.7 kmh E 11.5 mph18.5 kmh 30.06 in1017.9 mb - 0.00 in0.0 mm 0.00 in0.0 mm
07:15 AM 44.9°F7.2°C 39.1°F3.9°C 80% 6.9 mph E11.1 kmh E 11.5 mph18.5 kmh 30.06 in1017.9 mb - 0.00 in0.0 mm 0.00 in0.0 mm
07:10 AM 44.9°F7.2°C 39.1°F3.9°C 80% 6.9 mph E11.1 kmh E 10.4 mph16.7 kmh 30.06 in1017.9 mb - 0.00 in0.0 mm 0.00 in0.0 mm
07:05 AM 45.0°F7.2°C 39.2°F4.0°C 80% 6.9 mph ESE11.1 kmh ESE 10.4 mph16.7 kmh 30.06 in1017.9 mb - 0.00 in0.0 mm 0.00 in0.0 mm
07:00 AM 45.1°F7.3°C 39.3°F4.1°C 80% 5.8 mph E9.3 kmh E 8.1 mph13.0 kmh 30.06 in1017.9 mb - 0.00 in0.0 mm 0.00 in0.0 mm
06:55 AM 45.2°F7.3°C 39.4°F4.1°C 80% 6.9 mph E11.1 kmh E 8.1 mph13.0 kmh 30.06 in1017.9 mb - 0.00 in0.0 mm 0.00 in0.0 mm
06:50 AM 45.1°F7.3°C 39.3°F4.1°C 80% 6.9 mph E11.1 kmh E 10.4 mph16.7 kmh 30.06 in1017.9 mb - 0.00 in0.0 mm 0.00 in0.0 mm
06:45 AM 45.1°F7.3°C 39.3°F4.1°C 80% 6.9 mph E11.1 kmh E 9.2 mph14.8 kmh 30.06 in1017.9 mb - 0.00 in0.0 mm 0.00 in0.0 mm
06:40 AM 45.0°F7.2°C 39.2°F4.0°C 80% 8.1 mph E13.0 kmh E 10.4 mph16.7 kmh 30.06 in1017.9 mb - 0.00 in0.0 mm 0.00 in0.0 mm
06:35 AM 45.0°F7.2°C 39.2°F4.0°C 80% 6.9 mph E11.1 kmh E 8.1 mph13.0 kmh 30.06 in1017.9 mb - 0.00 in0.0 mm 0.00 in0.0 mm
06:30 AM 45.1°F7.3°C 39.3°F4.1°C 80% 5.8 mph ESE9.3 kmh ESE 8.1 mph13.0 kmh 30.06 in1017.9 mb - 0.00 in0.0 mm 0.00 in0.0 mm
06:25 AM 45.1°F7.3°C 39.3°F4.1°C 80% 3.5 mph E5.6 kmh E 3.5 mph5.6 kmh 30.06 in1017.9 mb - 0.00 in0.0 mm 0.00 in0.0 mm
06:20 AM 45.1°F7.3°C 39.3°F4.1°C 80% 4.6 mph E7.4 kmh E 6.9 mph11.1 kmh 30.06 in1017.9 mb - 0.00 in0.0 mm 0.00 in0.0 mm
06:15 AM 45.2°F7.3°C 39.4°F4.1°C 80% 4.6 mph E7.4 kmh E 6.9 mph11.1 kmh 30.06 in1017.9 mb - 0.00 in0.0 mm 0.00 in0.0 mm
06:10 AM 45.1°F7.3°C 39.3°F4.1°C 80% 5.8 mph E9.3 kmh E 8.1 mph13.0 kmh 30.06 in1017.9 mb - 0.00 in0.0 mm 0.00 in0.0 mm
06:05 AM 45.2°F7.3°C 39.4°F4.1°C 80% 3.5 mph ESE5.6 kmh ESE 5.8 mph9.3 kmh 30.06 in1017.9 mb - 0.00 in0.0 mm 0.00 in0.0 mm
06:00 AM 45.2°F7.3°C 39.4°F4.1°C 80% 3.5 mph E5.6 kmh E 3.5 mph5.6 kmh 30.06 in1017.9 mb - 0.00 in0.0 mm 0.00 in0.0 mm
05:55 AM 45.2°F7.3°C 39.4°F4.1°C 80% 3.5 mph E5.6 kmh E 3.5 mph5.6 kmh 30.06 in1017.9 mb - 0.00 in0.0 mm 0.00 in0.0 mm
05:50 AM 45.2°F7.3°C 39.4°F4.1°C 80% 3.5 mph E5.6 kmh E 4.6 mph7.4 kmh 30.06 in1017.9 mb - 0.00 in0.0 mm 0.00 in0.0 mm
05:45 AM 45.2°F7.3°C 39.4°F4.1°C 80% 4.6 mph E7.4 kmh E 8.1 mph13.0 kmh 30.06 in1017.9 mb - 0.00 in0.0 mm 0.00 in0.0 mm
05:40 AM 45.1°F7.3°C 39.3°F4.1°C 80% 8.1 mph E13.0 kmh E 10.4 mph16.7 kmh 30.05 in1017.6 mb - 0.00 in0.0 mm 0.00 in0.0 mm
05:35 AM 45.1°F7.3°C 39.3°F4.1°C 80% 3.5 mph E5.6 kmh E 9.2 mph14.8 kmh 30.05 in1017.6 mb - 0.00 in0.0 mm 0.00 in0.0 mm
05:30 AM 45.1°F7.3°C 39.3°F4.1°C 80% 3.5 mph E5.6 kmh E 8.1 mph13.0 kmh 30.05 in1017.6 mb - 0.00 in0.0 mm 0.00 in0.0 mm
05:25 AM 45.1°F7.3°C 39.3°F4.1°C 80% 5.8 mph ESE9.3 kmh ESE 9.2 mph14.8 kmh 30.05 in1017.6 mb - 0.00 in0.0 mm 0.00 in0.0 mm
05:20 AM 45.1°F7.3°C 39.3°F4.1°C 80% 9.2 mph E14.8 kmh E 11.5 mph18.5 kmh 30.05 in1017.6 mb - 0.00 in0.0 mm 0.00 in0.0 mm
05:15 AM 45.0°F7.2°C 39.2°F4.0°C 80% 9.2 mph E14.8 kmh E 11.5 mph18.5 kmh 30.04 in1017.3 mb - 0.00 in0.0 mm 0.00 in0.0 mm
05:10 AM 45.0°F7.2°C 39.2°F4.0°C 80% 6.9 mph E11.1 kmh E 9.2 mph14.8 kmh 30.05 in1017.6 mb - 0.00 in0.0 mm 0.00 in0.0 mm
05:05 AM 44.9°F7.2°C 39.1°F3.9°C 80% 8.1 mph E13.0 kmh E 10.4 mph16.7 kmh 30.05 in1017.6 mb - 0.00 in0.0 mm 0.00 in0.0 mm
05:00 AM 44.9°F7.2°C 39.1°F3.9°C 80% 4.6 mph ESE7.4 kmh ESE 6.9 mph11.1 kmh 30.05 in1017.6 mb - 0.00 in0.0 mm 0.00 in0.0 mm
04:55 AM 44.9°F7.2°C 39.1°F3.9°C 80% 6.9 mph ESE11.1 kmh ESE 9.2 mph14.8 kmh 30.04 in1017.3 mb - 0.00 in0.0 mm 0.00 in0.0 mm
04:50 AM 44.9°F7.2°C 39.1°F3.9°C 80% 5.8 mph E9.3 kmh E 9.2 mph14.8 kmh 30.05 in1017.6 mb - 0.00 in0.0 mm 0.00 in0.0 mm
04:45 AM 44.8°F7.1°C 39.0°F3.9°C 80% 5.8 mph E9.3 kmh E 9.2 mph14.8 kmh 30.04 in1017.3 mb - 0.00 in0.0 mm 0.00 in0.0 mm
04:40 AM 44.7°F7.1°C 38.9°F3.8°C 80% 6.9 mph E11.1 kmh E 11.5 mph18.5 kmh 30.04 in1017.3 mb - 0.00 in0.0 mm 0.00 in0.0 mm
04:35 AM 44.7°F7.1°C 38.9°F3.8°C 80% 5.8 mph SE9.3 kmh SE 8.1 mph13.0 kmh 30.04 in1017.3 mb - 0.00 in0.0 mm 0.00 in0.0 mm
04:30 AM 44.6°F7.0°C 38.8°F3.8°C 80% 5.8 mph E9.3 kmh E 9.2 mph14.8 kmh 30.05 in1017.6 mb - 0.00 in0.0 mm 0.00 in0.0 mm
04:25 AM 44.6°F7.0°C 38.8°F3.8°C 80% 5.8 mph E9.3 kmh E 10.4 mph16.7 kmh 30.05 in1017.6 mb - 0.00 in0.0 mm 0.00 in0.0 mm
04:20 AM 44.6°F7.0°C 38.8°F3.8°C 80% 5.8 mph E9.3 kmh E 8.1 mph13.0 kmh 30.05 in1017.6 mb - 0.00 in0.0 mm 0.00 in0.0 mm
04:15 AM 44.7°F7.1°C 38.9°F3.8°C 80% 8.1 mph E13.0 kmh E 8.1 mph13.0 kmh 30.05 in1017.6 mb - 0.00 in0.0 mm 0.00 in0.0 mm
04:10 AM 44.7°F7.1°C 38.9°F3.8°C 80% 5.8 mph E9.3 kmh E 10.4 mph16.7 kmh 30.05 in1017.6 mb - 0.00 in0.0 mm 0.00 in0.0 mm
04:05 AM 44.7°F7.1°C 38.9°F3.8°C 80% 6.9 mph ESE11.1 kmh ESE 11.5 mph18.5 kmh 30.05 in1017.6 mb - 0.00 in0.0 mm 0.00 in0.0 mm
04:00 AM 44.6°F7.0°C 38.8°F3.8°C 80% 8.1 mph E13.0 kmh E 11.5 mph18.5 kmh 30.04 in1017.3 mb - 0.00 in0.0 mm 0.00 in0.0 mm
03:55 AM 44.4°F6.9°C 38.6°F3.7°C 80% 10.4 mph E16.7 kmh E 12.7 mph20.4 kmh 30.05 in1017.6 mb - 0.00 in0.0 mm 0.00 in0.0 mm
03:50 AM 44.4°F6.9°C 38.6°F3.7°C 80% 8.1 mph E13.0 kmh E 11.5 mph18.5 kmh 30.05 in1017.6 mb - 0.00 in0.0 mm 0.00 in0.0 mm
03:45 AM 44.3°F6.8°C 38.5°F3.6°C 80% 9.2 mph E14.8 kmh E 12.7 mph20.4 kmh 30.05 in1017.6 mb - 0.00 in0.0 mm 0.00 in0.0 mm
03:40 AM 44.3°F6.8°C 38.5°F3.6°C 80% 5.8 mph E9.3 kmh E 9.2 mph14.8 kmh 30.05 in1017.6 mb - 0.00 in0.0 mm 0.00 in0.0 mm
03:35 AM 44.3°F6.8°C 38.6°F3.7°C 80% 5.8 mph E9.3 kmh E 11.5 mph18.5 kmh 30.05 in1017.6 mb - 0.00 in0.0 mm 0.00 in0.0 mm
03:30 AM 44.5°F6.9°C 38.7°F3.7°C 80% 8.1 mph ESE13.0 kmh ESE 11.5 mph18.5 kmh 30.06 in1017.9 mb - 0.00 in0.0 mm 0.00 in0.0 mm
03:25 AM 44.6°F7.0°C 38.8°F3.8°C 80% 8.1 mph E13.0 kmh E 9.2 mph14.8 kmh 30.06 in1017.9 mb - 0.00 in0.0 mm 0.00 in0.0 mm
03:20 AM 44.6°F7.0°C 38.8°F3.8°C 80% 5.8 mph E9.3 kmh E 8.1 mph13.0 kmh 30.06 in1017.9 mb - 0.00 in0.0 mm 0.00 in0.0 mm
03:15 AM 44.6°F7.0°C 38.8°F3.8°C 80% 3.5 mph ESE5.6 kmh ESE 8.1 mph13.0 kmh 30.06 in1017.9 mb - 0.00 in0.0 mm 0.00 in0.0 mm
03:10 AM 44.7°F7.1°C 38.9°F3.8°C 80% 4.6 mph E7.4 kmh E 8.1 mph13.0 kmh 30.06 in1017.9 mb - 0.00 in0.0 mm 0.00 in0.0 mm
03:05 AM 44.7°F7.1°C 38.9°F3.8°C 80% 6.9 mph ESE11.1 kmh ESE 9.2 mph14.8 kmh 30.06 in1017.9 mb - 0.00 in0.0 mm 0.00 in0.0 mm
03:00 AM 44.7°F7.1°C 38.9°F3.8°C 80% 6.9 mph ESE11.1 kmh ESE 8.1 mph13.0 kmh 30.06 in1017.9 mb - 0.00 in0.0 mm 0.00 in0.0 mm
02:55 AM 44.8°F7.1°C 39.0°F3.9°C 80% 4.6 mph ESE7.4 kmh ESE 6.9 mph11.1 kmh 30.06 in1017.9 mb - 0.00 in0.0 mm 0.00 in0.0 mm
02:50 AM 44.9°F7.2°C 39.1°F3.9°C 80% 6.9 mph ESE11.1 kmh ESE 10.4 mph16.7 kmh 30.06 in1017.9 mb - 0.00 in0.0 mm 0.00 in0.0 mm
02:45 AM 44.9°F7.2°C 39.1°F3.9°C 80% 5.8 mph E9.3 kmh E 9.2 mph14.8 kmh 30.06 in1017.9 mb - 0.00 in0.0 mm 0.00 in0.0 mm
02:40 AM 44.9°F7.2°C 39.1°F3.9°C 80% 6.9 mph E11.1 kmh E 10.4 mph16.7 kmh 30.06 in1017.9 mb - 0.00 in0.0 mm 0.00 in0.0 mm
02:35 AM 44.9°F7.2°C 39.1°F3.9°C 80% 5.8 mph E9.3 kmh E 10.4 mph16.7 kmh 30.06 in1017.9 mb - 0.00 in0.0 mm 0.00 in0.0 mm
02:30 AM 45.0°F7.2°C 39.2°F4.0°C 80% 5.8 mph E9.3 kmh E 10.4 mph16.7 kmh 30.06 in1017.9 mb - 0.00 in0.0 mm 0.00 in0.0 mm
02:25 AM 45.0°F7.2°C 39.2°F4.0°C 80% 3.5 mph ESE5.6 kmh ESE 5.8 mph9.3 kmh 30.06 in1017.9 mb - 0.00 in0.0 mm 0.00 in0.0 mm
02:20 AM 45.0°F7.2°C 39.2°F4.0°C 80% 5.8 mph ESE9.3 kmh ESE 8.1 mph13.0 kmh 30.06 in1017.9 mb - 0.00 in0.0 mm 0.00 in0.0 mm
02:15 AM 45.0°F7.2°C 39.2°F4.0°C 80% 4.6 mph E7.4 kmh E 6.9 mph11.1 kmh 30.07 in1018.3 mb - 0.00 in0.0 mm 0.00 in0.0 mm
02:10 AM 45.1°F7.3°C 39.3°F4.1°C 80% 4.6 mph E7.4 kmh E 6.9 mph11.1 kmh 30.07 in1018.3 mb - 0.00 in0.0 mm 0.00 in0.0 mm
02:00 AM 44.9°F7.2°C 39.1°F3.9°C 80% 2.3 mph ESE3.7 kmh ESE 3.5 mph5.6 kmh 30.07 in1018.3 mb - 0.00 in0.0 mm 0.00 in0.0 mm
01:55 AM 44.9°F7.2°C 39.1°F3.9°C 80% 2.3 mph E3.7 kmh E 6.9 mph11.1 kmh 30.07 in1018.3 mb - 0.00 in0.0 mm 0.00 in0.0 mm
01:50 AM 45.0°F7.2°C 39.2°F4.0°C 80% 3.5 mph E5.6 kmh E 6.9 mph11.1 kmh 30.07 in1018.3 mb - 0.00 in0.0 mm 0.00 in0.0 mm
01:45 AM 45.0°F7.2°C 39.2°F4.0°C 80% 3.5 mph ESE5.6 kmh ESE 5.8 mph9.3 kmh 30.07 in1018.3 mb - 0.00 in0.0 mm 0.00 in0.0 mm
01:40 AM 45.1°F7.3°C 39.3°F4.1°C 80% 4.6 mph ESE7.4 kmh ESE 3.5 mph5.6 kmh 30.07 in1018.3 mb - 0.00 in0.0 mm 0.00 in0.0 mm
01:35 AM 45.1°F7.3°C 39.3°F4.1°C 80% 4.6 mph ESE7.4 kmh ESE 6.9 mph11.1 kmh 30.07 in1018.3 mb - 0.00 in0.0 mm 0.00 in0.0 mm
01:30 AM 45.1°F7.3°C 39.3°F4.1°C 80% 3.5 mph E5.6 kmh E 5.8 mph9.3 kmh 30.07 in1018.3 mb - 0.00 in0.0 mm 0.00 in0.0 mm
01:25 AM 45.1°F7.3°C 39.3°F4.1°C 80% 4.6 mph ESE7.4 kmh ESE 8.1 mph13.0 kmh 30.07 in1018.3 mb - 0.00 in0.0 mm 0.00 in0.0 mm
01:20 AM 45.2°F7.3°C 39.4°F4.1°C 80% 3.5 mph ESE5.6 kmh ESE 4.6 mph7.4 kmh 30.07 in1018.3 mb - 0.00 in0.0 mm 0.00 in0.0 mm
01:15 AM 45.3°F7.4°C 39.5°F4.2°C 80% 3.5 mph ESE5.6 kmh ESE 5.8 mph9.3 kmh 30.07 in1018.3 mb - 0.00 in0.0 mm 0.00 in0.0 mm
01:10 AM 45.3°F7.4°C 39.5°F4.2°C 80% 4.6 mph E7.4 kmh E 8.1 mph13.0 kmh 30.07 in1018.3 mb - 0.00 in0.0 mm 0.00 in0.0 mm
01:05 AM 45.4°F7.4°C 39.6°F4.2°C 80% 4.6 mph ESE7.4 kmh ESE 6.9 mph11.1 kmh 30.07 in1018.3 mb - 0.00 in0.0 mm 0.00 in0.0 mm
01:00 AM 45.4°F7.4°C 39.6°F4.2°C 80% 4.6 mph E7.4 kmh E 6.9 mph11.1 kmh 30.07 in1018.3 mb - 0.00 in0.0 mm 0.00 in0.0 mm
12:55 AM 45.3°F7.4°C 39.5°F4.2°C 80% 4.6 mph ESE7.4 kmh ESE 6.9 mph11.1 kmh 30.07 in1018.3 mb - 0.00 in0.0 mm 0.00 in0.0 mm
12:50 AM 45.3°F7.4°C 39.5°F4.2°C 80% 3.5 mph ESE5.6 kmh ESE 3.5 mph5.6 kmh 30.07 in1018.3 mb - 0.00 in0.0 mm 0.00 in0.0 mm
12:45 AM 45.3°F7.4°C 39.5°F4.2°C 80% 3.5 mph E5.6 kmh E 3.5 mph5.6 kmh 30.06 in1017.9 mb - 0.00 in0.0 mm 0.00 in0.0 mm
12:40 AM 45.2°F7.3°C 39.4°F4.1°C 80% 5.8 mph E9.3 kmh E 6.9 mph11.1 kmh 30.06 in1017.9 mb - 0.00 in0.0 mm 0.00 in0.0 mm
12:35 AM 45.1°F7.3°C 39.3°F4.1°C 80% 5.8 mph E9.3 kmh E 9.2 mph14.8 kmh 30.06 in1017.9 mb - 0.00 in0.0 mm 0.00 in0.0 mm
12:30 AM 45.1°F7.3°C 39.3°F4.1°C 80% 4.6 mph ESE7.4 kmh ESE 6.9 mph11.1 kmh 30.07 in1018.3 mb - 0.00 in0.0 mm 0.00 in0.0 mm
12:25 AM 45.1°F7.3°C 39.3°F4.1°C 80% 5.8 mph ESE9.3 kmh ESE 6.9 mph11.1 kmh 30.07 in1018.3 mb - 0.00 in0.0 mm 0.00 in0.0 mm
12:20 AM 45.3°F7.4°C 39.5°F4.2°C 80% 5.8 mph ESE9.3 kmh ESE 9.2 mph14.8 kmh 30.07 in1018.3 mb - 0.00 in0.0 mm 0.00 in0.0 mm
12:15 AM 45.3°F7.4°C 39.5°F4.2°C 80% 5.8 mph E9.3 kmh E 8.1 mph13.0 kmh 30.07 in1018.3 mb - 0.00 in0.0 mm 0.00 in0.0 mm
12:10 AM 45.3°F7.4°C 39.5°F4.2°C 80% 5.8 mph ESE9.3 kmh ESE 8.1 mph13.0 kmh 30.07 in1018.3 mb - 0.00 in0.0 mm 0.00 in0.0 mm
12:05 AM 45.3°F7.4°C 39.2°F4.0°C 79% 3.5 mph ESE5.6 kmh ESE 5.8 mph9.3 kmh 30.07 in1018.3 mb - 0.00 in0.0 mm 0.00 in0.0 mm
12:00 AM 45.2°F7.3°C 39.0°F3.9°C 79% 5.8 mph E9.3 kmh E 8.1 mph13.0 kmh 30.07 in1018.3 mb - 0.00 in0.0 mm 0.00 in0.0 mm